sensor_id;sensor_type;location;lat;lon;timestamp;P1;durP1;ratioP1;P2;durP2;ratioP2
62709;SDS011;48770;51.624;5.886;2023-08-12T00:00:33;1.05;;;0.38;;
62709;SDS011;48770;51.624;5.886;2023-08-12T00:02:58;0.50;;;0.45;;
62709;SDS011;48770;51.624;5.886;2023-08-12T00:05:23;0.88;;;0.20;;
62709;SDS011;48770;51.624;5.886;2023-08-12T00:07:49;0.63;;;0.35;;
62709;SDS011;48770;51.624;5.886;2023-08-12T00:10:14;0.40;;;0.30;;
62709;SDS011;48770;51.624;5.886;2023-08-12T00:12:40;0.35;;;0.32;;
62709;SDS011;48770;51.624;5.886;2023-08-12T00:15:06;0.38;;;0.30;;
62709;SDS011;48770;51.624;5.886;2023-08-12T00:17:33;0.45;;;0.40;;
62709;SDS011;48770;51.624;5.886;2023-08-12T00:19:59;0.52;;;0.35;;
62709;SDS011;48770;51.624;5.886;2023-08-12T00:22:25;0.45;;;0.40;;
62709;SDS011;48770;51.624;5.886;2023-08-12T00:24:50;0.40;;;0.30;;
62709;SDS011;48770;51.624;5.886;2023-08-12T00:27:17;0.50;;;0.30;;
62709;SDS011;48770;51.624;5.886;2023-08-12T00:29:42;0.55;;;0.30;;
62709;SDS011;48770;51.624;5.886;2023-08-12T00:32:08;0.47;;;0.45;;
62709;SDS011;48770;51.624;5.886;2023-08-12T00:34:34;0.50;;;0.30;;
62709;SDS011;48770;51.624;5.886;2023-08-12T00:36:59;0.30;;;0.22;;
62709;SDS011;48770;51.624;5.886;2023-08-12T00:39:24;0.43;;;0.40;;
62709;SDS011;48770;51.624;5.886;2023-08-12T00:41:50;0.50;;;0.30;;
62709;SDS011;48770;51.624;5.886;2023-08-12T00:44:15;0.38;;;0.30;;
62709;SDS011;48770;51.624;5.886;2023-08-12T00:46:41;0.43;;;0.25;;
62709;SDS011;48770;51.624;5.886;2023-08-12T00:49:07;0.30;;;0.30;;
62709;SDS011;48770;51.624;5.886;2023-08-12T00:51:34;0.32;;;0.32;;
62709;SDS011;48770;51.624;5.886;2023-08-12T00:54:01;0.95;;;0.30;;
62709;SDS011;48770;51.624;5.886;2023-08-12T00:56:29;1.17;;;0.30;;
62709;SDS011;48770;51.624;5.886;2023-08-12T00:58:56;1.10;;;0.30;;
62709;SDS011;48770;51.624;5.886;2023-08-12T01:01:21;0.40;;;0.20;;
62709;SDS011;48770;51.624;5.886;2023-08-12T01:03:46;0.57;;;0.50;;
62709;SDS011;48770;51.624;5.886;2023-08-12T01:06:12;0.63;;;0.40;;
62709;SDS011;48770;51.624;5.886;2023-08-12T01:08:37;0.60;;;0.40;;
62709;SDS011;48770;51.624;5.886;2023-08-12T01:11:14;1.58;;;0.40;;
62709;SDS011;48770;51.624;5.886;2023-08-12T01:13:49;0.30;;;0.30;;
62709;SDS011;48770;51.624;5.886;2023-08-12T01:16:35;0.40;;;0.30;;
62709;SDS011;48770;51.624;5.886;2023-08-12T01:19:05;0.60;;;0.40;;
62709;SDS011;48770;51.624;5.886;2023-08-12T01:21:34;0.95;;;0.38;;
62709;SDS011;48770;51.624;5.886;2023-08-12T01:24:05;0.30;;;0.30;;
62709;SDS011;48770;51.624;5.886;2023-08-12T01:26:30;0.40;;;0.30;;
62709;SDS011;48770;51.624;5.886;2023-08-12T01:28:56;0.30;;;0.30;;
62709;SDS011;48770;51.624;5.886;2023-08-12T01:31:23;0.50;;;0.43;;
62709;SDS011;48770;51.624;5.886;2023-08-12T01:34:02;0.22;;;0.20;;
62709;SDS011;48770;51.624;5.886;2023-08-12T01:36:37;0.60;;;0.30;;
62709;SDS011;48770;51.624;5.886;2023-08-12T01:39:04;0.40;;;0.30;;
62709;SDS011;48770;51.624;5.886;2023-08-12T01:41:33;0.43;;;0.30;;
62709;SDS011;48770;51.624;5.886;2023-08-12T01:44:00;0.73;;;0.30;;
62709;SDS011;48770;51.624;5.886;2023-08-12T01:46:27;0.43;;;0.30;;
62709;SDS011;48770;51.624;5.886;2023-08-12T01:48:52;0.40;;;0.30;;
62709;SDS011;48770;51.624;5.886;2023-08-12T01:51:17;0.37;;;0.37;;
62709;SDS011;48770;51.624;5.886;2023-08-12T01:53:43;0.30;;;0.30;;
62709;SDS011;48770;51.624;5.886;2023-08-12T01:56:08;0.30;;;0.30;;
62709;SDS011;48770;51.624;5.886;2023-08-12T01:58:33;0.40;;;0.40;;
62709;SDS011;48770;51.624;5.886;2023-08-12T02:00:59;0.40;;;0.38;;
62709;SDS011;48770;51.624;5.886;2023-08-12T02:03:24;0.30;;;0.30;;
62709;SDS011;48770;51.624;5.886;2023-08-12T02:05:49;0.30;;;0.30;;
62709;SDS011;48770;51.624;5.886;2023-08-12T02:08:14;0.28;;;0.22;;
62709;SDS011;48770;51.624;5.886;2023-08-12T02:10:40;0.43;;;0.25;;
62709;SDS011;48770;51.624;5.886;2023-08-12T02:13:05;0.22;;;0.20;;
62709;SDS011;48770;51.624;5.886;2023-08-12T02:15:31;0.43;;;0.40;;
62709;SDS011;48770;51.624;5.886;2023-08-12T02:17:56;0.20;;;0.20;;
62709;SDS011;48770;51.624;5.886;2023-08-12T02:20:21;0.73;;;0.40;;
62709;SDS011;48770;51.624;5.886;2023-08-12T02:22:46;0.25;;;0.25;;
62709;SDS011;48770;51.624;5.886;2023-08-12T02:25:12;0.30;;;0.20;;
62709;SDS011;48770;51.624;5.886;2023-08-12T02:27:37;0.30;;;0.30;;
62709;SDS011;48770;51.624;5.886;2023-08-12T02:30:03;0.37;;;0.30;;
62709;SDS011;48770;51.624;5.886;2023-08-12T02:32:29;0.30;;;0.30;;
62709;SDS011;48770;51.624;5.886;2023-08-12T02:34:54;0.30;;;0.30;;
62709;SDS011;48770;51.624;5.886;2023-08-12T02:37:20;0.55;;;0.20;;
62709;SDS011;48770;51.624;5.886;2023-08-12T02:39:45;0.40;;;0.30;;
62709;SDS011;48770;51.624;5.886;2023-08-12T02:42:10;0.95;;;0.30;;
62709;SDS011;48770;51.624;5.886;2023-08-12T02:44:35;0.40;;;0.30;;
62709;SDS011;48770;51.624;5.886;2023-08-12T02:47:01;0.50;;;0.35;;
62709;SDS011;48770;51.624;5.886;2023-08-12T02:49:26;0.93;;;0.40;;
62709;SDS011;48770;51.624;5.886;2023-08-12T02:51:52;0.30;;;0.22;;
62709;SDS011;48770;51.624;5.886;2023-08-12T02:54:18;0.47;;;0.30;;
62709;SDS011;48770;51.624;5.886;2023-08-12T02:56:43;0.30;;;0.20;;
62709;SDS011;48770;51.624;5.886;2023-08-12T02:59:09;0.20;;;0.20;;
62709;SDS011;48770;51.624;5.886;2023-08-12T03:01:34;0.47;;;0.25;;
62709;SDS011;48770;51.624;5.886;2023-08-12T03:03:59;0.40;;;0.30;;
62709;SDS011;48770;51.624;5.886;2023-08-12T03:06:25;0.40;;;0.20;;
62709;SDS011;48770;51.624;5.886;2023-08-12T03:08:50;0.40;;;0.30;;
62709;SDS011;48770;51.624;5.886;2023-08-12T03:11:15;0.50;;;0.30;;
62709;SDS011;48770;51.624;5.886;2023-08-12T03:13:41;0.20;;;0.20;;
62709;SDS011;48770;51.624;5.886;2023-08-12T03:16:10;0.30;;;0.20;;
62709;SDS011;48770;51.624;5.886;2023-08-12T03:18:39;0.63;;;0.35;;
62709;SDS011;48770;51.624;5.886;2023-08-12T03:21:05;0.30;;;0.30;;
62709;SDS011;48770;51.624;5.886;2023-08-12T03:23:31;0.22;;;0.22;;
62709;SDS011;48770;51.624;5.886;2023-08-12T03:25:57;0.10;;;0.10;;
62709;SDS011;48770;51.624;5.886;2023-08-12T03:28:22;0.20;;;0.20;;
62709;SDS011;48770;51.624;5.886;2023-08-12T03:30:51;0.28;;;0.20;;
62709;SDS011;48770;51.624;5.886;2023-08-12T03:33:17;0.20;;;0.17;;
62709;SDS011;48770;51.624;5.886;2023-08-12T03:35:44;0.40;;;0.30;;
62709;SDS011;48770;51.624;5.886;2023-08-12T03:38:10;0.30;;;0.28;;
62709;SDS011;48770;51.624;5.886;2023-08-12T03:40:37;0.30;;;0.20;;
62709;SDS011;48770;51.624;5.886;2023-08-12T03:43:03;0.20;;;0.20;;
62709;SDS011;48770;51.624;5.886;2023-08-12T03:45:29;0.30;;;0.30;;
62709;SDS011;48770;51.624;5.886;2023-08-12T03:47:54;0.20;;;0.20;;
62709;SDS011;48770;51.624;5.886;2023-08-12T03:50:19;0.27;;;0.20;;
62709;SDS011;48770;51.624;5.886;2023-08-12T03:52:45;0.30;;;0.30;;
62709;SDS011;48770;51.624;5.886;2023-08-12T03:55:10;0.87;;;0.40;;
62709;SDS011;48770;51.624;5.886;2023-08-12T03:57:35;0.20;;;0.20;;
62709;SDS011;48770;51.624;5.886;2023-08-12T04:00:01;0.23;;;0.23;;
62709;SDS011;48770;51.624;5.886;2023-08-12T04:02:26;0.38;;;0.30;;
62709;SDS011;48770;51.624;5.886;2023-08-12T04:04:52;0.35;;;0.30;;
62709;SDS011;48770;51.624;5.886;2023-08-12T04:07:17;0.57;;;0.30;;
62709;SDS011;48770;51.624;5.886;2023-08-12T04:09:42;0.63;;;0.30;;
62709;SDS011;48770;51.624;5.886;2023-08-12T04:12:08;0.20;;;0.20;;
62709;SDS011;48770;51.624;5.886;2023-08-12T04:14:33;0.45;;;0.25;;
62709;SDS011;48770;51.624;5.886;2023-08-12T04:16:58;0.22;;;0.20;;
62709;SDS011;48770;51.624;5.886;2023-08-12T04:19:24;0.30;;;0.20;;
62709;SDS011;48770;51.624;5.886;2023-08-12T04:21:49;0.20;;;0.20;;
62709;SDS011;48770;51.624;5.886;2023-08-12T04:24:14;0.20;;;0.20;;
62709;SDS011;48770;51.624;5.886;2023-08-12T04:26:39;0.20;;;0.20;;
62709;SDS011;48770;51.624;5.886;2023-08-12T04:29:05;0.25;;;0.22;;
62709;SDS011;48770;51.624;5.886;2023-08-12T04:31:30;0.20;;;0.20;;
62709;SDS011;48770;51.624;5.886;2023-08-12T04:33:56;0.40;;;0.20;;
62709;SDS011;48770;51.624;5.886;2023-08-12T04:36:21;0.55;;;0.28;;
62709;SDS011;48770;51.624;5.886;2023-08-12T04:38:47;0.22;;;0.20;;
62709;SDS011;48770;51.624;5.886;2023-08-12T04:41:12;0.13;;;0.13;;
62709;SDS011;48770;51.624;5.886;2023-08-12T04:43:37;0.28;;;0.25;;
62709;SDS011;48770;51.624;5.886;2023-08-12T04:46:03;0.30;;;0.30;;
62709;SDS011;48770;51.624;5.886;2023-08-12T04:48:28;0.40;;;0.20;;
62709;SDS011;48770;51.624;5.886;2023-08-12T04:50:56;0.20;;;0.20;;
62709;SDS011;48770;51.624;5.886;2023-08-12T04:53:25;0.30;;;0.20;;
62709;SDS011;48770;51.624;5.886;2023-08-12T04:55:50;0.50;;;0.40;;
62709;SDS011;48770;51.624;5.886;2023-08-12T04:58:16;0.30;;;0.30;;
62709;SDS011;48770;51.624;5.886;2023-08-12T05:00:42;0.32;;;0.20;;
62709;SDS011;48770;51.624;5.886;2023-08-12T05:03:07;0.15;;;0.15;;
62709;SDS011;48770;51.624;5.886;2023-08-12T05:05:32;0.20;;;0.20;;
62709;SDS011;48770;51.624;5.886;2023-08-12T05:07:58;0.30;;;0.28;;
62709;SDS011;48770;51.624;5.886;2023-08-12T05:10:23;0.40;;;0.20;;
62709;SDS011;48770;51.624;5.886;2023-08-12T05:12:48;0.20;;;0.20;;
62709;SDS011;48770;51.624;5.886;2023-08-12T05:15:15;0.15;;;0.15;;
62709;SDS011;48770;51.624;5.886;2023-08-12T05:17:40;0.28;;;0.15;;
62709;SDS011;48770;51.624;5.886;2023-08-12T05:20:06;0.30;;;0.30;;
62709;SDS011;48770;51.624;5.886;2023-08-12T05:22:32;0.22;;;0.20;;
62709;SDS011;48770;51.624;5.886;2023-08-12T05:24:57;0.30;;;0.30;;
62709;SDS011;48770;51.624;5.886;2023-08-12T05:27:22;0.20;;;0.20;;
62709;SDS011;48770;51.624;5.886;2023-08-12T05:29:48;0.30;;;0.20;;
62709;SDS011;48770;51.624;5.886;2023-08-12T05:32:13;0.10;;;0.10;;
62709;SDS011;48770;51.624;5.886;2023-08-12T05:34:38;0.20;;;0.20;;
62709;SDS011;48770;51.624;5.886;2023-08-12T05:37:04;0.30;;;0.28;;
62709;SDS011;48770;51.624;5.886;2023-08-12T05:39:29;0.20;;;0.20;;
62709;SDS011;48770;51.624;5.886;2023-08-12T05:41:54;0.10;;;0.10;;
62709;SDS011;48770;51.624;5.886;2023-08-12T05:44:19;0.10;;;0.10;;
62709;SDS011;48770;51.624;5.886;2023-08-12T05:46:45;0.20;;;0.20;;
62709;SDS011;48770;51.624;5.886;2023-08-12T05:49:11;0.30;;;0.20;;
62709;SDS011;48770;51.624;5.886;2023-08-12T05:51:36;0.40;;;0.32;;
62709;SDS011;48770;51.624;5.886;2023-08-12T05:54:03;0.30;;;0.20;;
62709;SDS011;48770;51.624;5.886;2023-08-12T05:56:28;0.20;;;0.20;;
62709;SDS011;48770;51.624;5.886;2023-08-12T05:58:54;0.20;;;0.20;;
62709;SDS011;48770;51.624;5.886;2023-08-12T06:01:19;0.20;;;0.20;;
62709;SDS011;48770;51.624;5.886;2023-08-12T06:03:44;0.40;;;0.30;;
62709;SDS011;48770;51.624;5.886;2023-08-12T06:06:10;0.20;;;0.10;;
62709;SDS011;48770;51.624;5.886;2023-08-12T06:08:35;0.20;;;0.10;;
62709;SDS011;48770;51.624;5.886;2023-08-12T06:11:00;0.30;;;0.30;;
62709;SDS011;48770;51.624;5.886;2023-08-12T06:13:26;0.22;;;0.20;;
62709;SDS011;48770;51.624;5.886;2023-08-12T06:15:51;0.20;;;0.20;;
62709;SDS011;48770;51.624;5.886;2023-08-12T06:18:16;0.30;;;0.20;;
62709;SDS011;48770;51.624;5.886;2023-08-12T06:20:42;0.20;;;0.20;;
62709;SDS011;48770;51.624;5.886;2023-08-12T06:23:07;0.10;;;0.10;;
62709;SDS011;48770;51.624;5.886;2023-08-12T06:25:32;0.43;;;0.30;;
62709;SDS011;48770;51.624;5.886;2023-08-12T06:27:58;0.20;;;0.20;;
62709;SDS011;48770;51.624;5.886;2023-08-12T06:30:23;0.38;;;0.20;;
62709;SDS011;48770;51.624;5.886;2023-08-12T06:32:49;0.57;;;0.38;;
62709;SDS011;48770;51.624;5.886;2023-08-12T06:35:14;0.20;;;0.20;;
62709;SDS011;48770;51.624;5.886;2023-08-12T06:37:39;0.13;;;0.13;;
62709;SDS011;48770;51.624;5.886;2023-08-12T06:40:05;0.20;;;0.20;;
62709;SDS011;48770;51.624;5.886;2023-08-12T06:42:31;0.60;;;0.40;;
62709;SDS011;48770;51.624;5.886;2023-08-12T06:44:57;0.20;;;0.20;;
62709;SDS011;48770;51.624;5.886;2023-08-12T06:47:24;0.45;;;0.20;;
62709;SDS011;48770;51.624;5.886;2023-08-12T06:49:52;0.30;;;0.30;;
62709;SDS011;48770;51.624;5.886;2023-08-12T06:52:17;0.47;;;0.28;;
62709;SDS011;48770;51.624;5.886;2023-08-12T06:54:43;0.17;;;0.17;;
62709;SDS011;48770;51.624;5.886;2023-08-12T06:57:08;0.45;;;0.20;;
62709;SDS011;48770;51.624;5.886;2023-08-12T06:59:33;0.17;;;0.17;;
62709;SDS011;48770;51.624;5.886;2023-08-12T07:01:59;0.35;;;0.30;;
62709;SDS011;48770;51.624;5.886;2023-08-12T07:04:24;0.35;;;0.20;;
62709;SDS011;48770;51.624;5.886;2023-08-12T07:06:50;0.20;;;0.20;;
62709;SDS011;48770;51.624;5.886;2023-08-12T07:09:15;0.40;;;0.28;;
62709;SDS011;48770;51.624;5.886;2023-08-12T07:11:41;0.30;;;0.20;;
62709;SDS011;48770;51.624;5.886;2023-08-12T07:14:06;0.30;;;0.20;;
62709;SDS011;48770;51.624;5.886;2023-08-12T07:16:31;0.20;;;0.10;;
62709;SDS011;48770;51.624;5.886;2023-08-12T07:18:58;0.45;;;0.35;;
62709;SDS011;48770;51.624;5.886;2023-08-12T07:21:23;0.20;;;0.10;;
62709;SDS011;48770;51.624;5.886;2023-08-12T07:23:49;0.40;;;0.22;;
62709;SDS011;48770;51.624;5.886;2023-08-12T07:26:14;0.20;;;0.20;;
62709;SDS011;48770;51.624;5.886;2023-08-12T07:28:39;0.30;;;0.20;;
62709;SDS011;48770;51.624;5.886;2023-08-12T07:31:05;0.60;;;0.30;;
62709;SDS011;48770;51.624;5.886;2023-08-12T07:33:30;0.30;;;0.20;;
62709;SDS011;48770;51.624;5.886;2023-08-12T07:35:56;0.20;;;0.20;;
62709;SDS011;48770;51.624;5.886;2023-08-12T07:38:21;0.17;;;0.17;;
62709;SDS011;48770;51.624;5.886;2023-08-12T07:40:48;0.13;;;0.10;;
62709;SDS011;48770;51.624;5.886;2023-08-12T07:43:13;0.30;;;0.20;;
62709;SDS011;48770;51.624;5.886;2023-08-12T07:45:39;0.17;;;0.10;;
62709;SDS011;48770;51.624;5.886;2023-08-12T07:48:04;0.88;;;0.30;;
62709;SDS011;48770;51.624;5.886;2023-08-12T07:50:30;0.30;;;0.20;;
62709;SDS011;48770;51.624;5.886;2023-08-12T07:52:55;0.20;;;0.20;;
62709;SDS011;48770;51.624;5.886;2023-08-12T07:55:20;0.40;;;0.30;;
62709;SDS011;48770;51.624;5.886;2023-08-12T07:57:46;0.35;;;0.20;;
62709;SDS011;48770;51.624;5.886;2023-08-12T08:00:11;0.37;;;0.27;;
62709;SDS011;48770;51.624;5.886;2023-08-12T08:02:37;0.28;;;0.20;;
62709;SDS011;48770;51.624;5.886;2023-08-12T08:05:03;0.50;;;0.20;;
62709;SDS011;48770;51.624;5.886;2023-08-12T08:07:28;0.22;;;0.20;;
62709;SDS011;48770;51.624;5.886;2023-08-12T08:09:54;0.28;;;0.20;;
62709;SDS011;48770;51.624;5.886;2023-08-12T08:12:19;0.55;;;0.20;;
62709;SDS011;48770;51.624;5.886;2023-08-12T08:14:44;0.30;;;0.20;;
62709;SDS011;48770;51.624;5.886;2023-08-12T08:17:10;0.20;;;0.20;;
62709;SDS011;48770;51.624;5.886;2023-08-12T08:19:35;0.20;;;0.20;;
62709;SDS011;48770;51.624;5.886;2023-08-12T08:22:01;0.25;;;0.25;;
62709;SDS011;48770;51.624;5.886;2023-08-12T08:24:26;0.30;;;0.20;;
62709;SDS011;48770;51.624;5.886;2023-08-12T08:26:52;0.20;;;0.13;;
62709;SDS011;48770;51.624;5.886;2023-08-12T08:29:17;0.30;;;0.20;;
62709;SDS011;48770;51.624;5.886;2023-08-12T08:31:42;0.32;;;0.22;;
62709;SDS011;48770;51.624;5.886;2023-08-12T08:34:08;0.10;;;0.10;;
62709;SDS011;48770;51.624;5.886;2023-08-12T08:36:34;0.35;;;0.25;;
62709;SDS011;48770;51.624;5.886;2023-08-12T08:39:00;0.30;;;0.20;;
62709;SDS011;48770;51.624;5.886;2023-08-12T08:41:25;0.28;;;0.17;;
62709;SDS011;48770;51.624;5.886;2023-08-12T08:43:54;0.45;;;0.10;;
62709;SDS011;48770;51.624;5.886;2023-08-12T08:46:24;0.10;;;0.10;;
62709;SDS011;48770;51.624;5.886;2023-08-12T08:48:49;0.20;;;0.20;;
62709;SDS011;48770;51.624;5.886;2023-08-12T08:51:17;0.20;;;0.20;;
62709;SDS011;48770;51.624;5.886;2023-08-12T08:53:44;0.10;;;0.10;;
62709;SDS011;48770;51.624;5.886;2023-08-12T08:56:10;0.50;;;0.20;;
62709;SDS011;48770;51.624;5.886;2023-08-12T08:58:36;0.20;;;0.20;;
62709;SDS011;48770;51.624;5.886;2023-08-12T09:01:03;0.20;;;0.20;;
62709;SDS011;48770;51.624;5.886;2023-08-12T09:03:31;0.20;;;0.20;;
62709;SDS011;48770;51.624;5.886;2023-08-12T09:05:58;0.30;;;0.30;;
62709;SDS011;48770;51.624;5.886;2023-08-12T09:08:25;0.45;;;0.20;;
62709;SDS011;48770;51.624;5.886;2023-08-12T09:10:52;0.25;;;0.22;;
62709;SDS011;48770;51.624;5.886;2023-08-12T09:13:19;0.30;;;0.13;;
62709;SDS011;48770;51.624;5.886;2023-08-12T09:15:45;0.20;;;0.20;;
62709;SDS011;48770;51.624;5.886;2023-08-12T09:18:10;0.20;;;0.20;;
62709;SDS011;48770;51.624;5.886;2023-08-12T09:20:36;0.13;;;0.10;;
62709;SDS011;48770;51.624;5.886;2023-08-12T09:23:01;0.28;;;0.28;;
62709;SDS011;48770;51.624;5.886;2023-08-12T09:25:27;0.35;;;0.30;;
62709;SDS011;48770;51.624;5.886;2023-08-12T09:27:59;0.20;;;0.20;;
62709;SDS011;48770;51.624;5.886;2023-08-12T09:30:28;0.20;;;0.20;;
62709;SDS011;48770;51.624;5.886;2023-08-12T09:32:58;0.35;;;0.20;;
62709;SDS011;48770;51.624;5.886;2023-08-12T09:35:30;0.17;;;0.10;;
62709;SDS011;48770;51.624;5.886;2023-08-12T09:37:57;0.28;;;0.20;;
62709;SDS011;48770;51.624;5.886;2023-08-12T09:40:23;0.22;;;0.20;;
62709;SDS011;48770;51.624;5.886;2023-08-12T09:42:48;0.20;;;0.20;;
62709;SDS011;48770;51.624;5.886;2023-08-12T09:45:15;0.10;;;0.10;;
62709;SDS011;48770;51.624;5.886;2023-08-12T09:47:41;0.30;;;0.20;;
62709;SDS011;48770;51.624;5.886;2023-08-12T09:50:09;0.30;;;0.20;;
62709;SDS011;48770;51.624;5.886;2023-08-12T09:52:35;0.28;;;0.10;;
62709;SDS011;48770;51.624;5.886;2023-08-12T09:55:00;0.40;;;0.20;;
62709;SDS011;48770;51.624;5.886;2023-08-12T09:57:30;0.28;;;0.20;;
62709;SDS011;48770;51.624;5.886;2023-08-12T09:59:58;0.17;;;0.10;;
62709;SDS011;48770;51.624;5.886;2023-08-12T10:02:25;0.20;;;0.15;;
62709;SDS011;48770;51.624;5.886;2023-08-12T10:04:53;0.30;;;0.10;;
62709;SDS011;48770;51.624;5.886;2023-08-12T10:07:21;0.68;;;0.20;;
62709;SDS011;48770;51.624;5.886;2023-08-12T10:09:48;0.20;;;0.20;;
62709;SDS011;48770;51.624;5.886;2023-08-12T10:12:14;0.50;;;0.10;;
62709;SDS011;48770;51.624;5.886;2023-08-12T10:14:40;0.32;;;0.20;;
62709;SDS011;48770;51.624;5.886;2023-08-12T10:17:05;0.28;;;0.20;;
62709;SDS011;48770;51.624;5.886;2023-08-12T10:19:34;0.20;;;0.20;;
62709;SDS011;48770;51.624;5.886;2023-08-12T10:22:02;0.45;;;0.30;;
62709;SDS011;48770;51.624;5.886;2023-08-12T10:24:28;0.30;;;0.20;;
62709;SDS011;48770;51.624;5.886;2023-08-12T10:26:55;2.40;;;0.55;;
62709;SDS011;48770;51.624;5.886;2023-08-12T10:29:22;4.03;;;0.50;;
62709;SDS011;48770;51.624;5.886;2023-08-12T10:31:49;3.22;;;1.00;;
62709;SDS011;48770;51.624;5.886;2023-08-12T10:34:21;7.43;;;2.00;;
62709;SDS011;48770;51.624;5.886;2023-08-12T10:36:48;19.23;;;2.35;;
62709;SDS011;48770;51.624;5.886;2023-08-12T10:39:21;13.68;;;2.15;;
62709;SDS011;48770;51.624;5.886;2023-08-12T10:41:51;14.85;;;2.33;;
62709;SDS011;48770;51.624;5.886;2023-08-12T10:44:19;10.77;;;2.50;;
62709;SDS011;48770;51.624;5.886;2023-08-12T10:46:50;8.90;;;2.20;;
62709;SDS011;48770;51.624;5.886;2023-08-12T10:49:18;8.77;;;1.88;;
62709;SDS011;48770;51.624;5.886;2023-08-12T10:51:45;9.00;;;1.75;;
62709;SDS011;48770;51.624;5.886;2023-08-12T11:02:17;5.82;;;1.55;;
62709;SDS011;48770;51.624;5.886;2023-08-12T11:04:56;6.43;;;1.48;;
62709;SDS011;48770;51.624;5.886;2023-08-12T11:07:33;7.65;;;1.60;;
62709;SDS011;48770;51.624;5.886;2023-08-12T11:10:03;4.50;;;1.50;;
62709;SDS011;48770;51.624;5.886;2023-08-12T11:12:32;4.03;;;1.40;;
62709;SDS011;48770;51.624;5.886;2023-08-12T11:14:59;9.57;;;1.85;;
62709;SDS011;48770;51.624;5.886;2023-08-12T11:17:29;5.15;;;1.30;;
62709;SDS011;48770;51.624;5.886;2023-08-12T11:20:12;2.55;;;1.00;;
62709;SDS011;48770;51.624;5.886;2023-08-12T11:22:42;5.10;;;1.40;;
62709;SDS011;48770;51.624;5.886;2023-08-12T11:25:10;4.22;;;1.40;;
62709;SDS011;48770;51.624;5.886;2023-08-12T11:27:43;2.25;;;1.02;;
62709;SDS011;48770;51.624;5.886;2023-08-12T11:30:11;3.03;;;1.50;;
62709;SDS011;48770;51.624;5.886;2023-08-12T11:32:40;2.05;;;1.00;;
62709;SDS011;48770;51.624;5.886;2023-08-12T11:35:06;2.63;;;1.15;;
62709;SDS011;48770;51.624;5.886;2023-08-12T11:37:34;1.98;;;0.93;;
62709;SDS011;48770;51.624;5.886;2023-08-12T11:40:02;5.28;;;1.45;;
62709;SDS011;48770;51.624;5.886;2023-08-12T11:42:28;3.15;;;1.23;;
62709;SDS011;48770;51.624;5.886;2023-08-12T11:44:55;2.03;;;0.98;;
62709;SDS011;48770;51.624;5.886;2023-08-12T11:47:20;2.45;;;0.98;;
62709;SDS011;48770;51.624;5.886;2023-08-12T11:49:45;2.67;;;0.90;;
62709;SDS011;48770;51.624;5.886;2023-08-12T11:52:11;2.10;;;0.80;;
62709;SDS011;48770;51.624;5.886;2023-08-12T11:54:36;2.28;;;0.90;;
62709;SDS011;48770;51.624;5.886;2023-08-12T11:57:02;3.92;;;0.93;;
62709;SDS011;48770;51.624;5.886;2023-08-12T11:59:28;1.65;;;0.73;;
62709;SDS011;48770;51.624;5.886;2023-08-12T12:01:55;4.22;;;0.93;;
62709;SDS011;48770;51.624;5.886;2023-08-12T12:04:21;3.33;;;1.10;;
62709;SDS011;48770;51.624;5.886;2023-08-12T12:06:46;1.95;;;0.90;;
62709;SDS011;48770;51.624;5.886;2023-08-12T12:09:15;1.98;;;1.00;;
62709;SDS011;48770;51.624;5.886;2023-08-12T12:11:43;1.75;;;0.70;;
62709;SDS011;48770;51.624;5.886;2023-08-12T12:14:09;4.43;;;0.75;;
62709;SDS011;48770;51.624;5.886;2023-08-12T12:16:45;1.52;;;0.80;;
62709;SDS011;48770;51.624;5.886;2023-08-12T12:19:18;4.63;;;1.75;;
62709;SDS011;48770;51.624;5.886;2023-08-12T12:21:46;4.57;;;0.85;;
62709;SDS011;48770;51.624;5.886;2023-08-12T12:24:13;1.25;;;0.68;;
62709;SDS011;48770;51.624;5.886;2023-08-12T12:26:39;1.83;;;0.75;;
62709;SDS011;48770;51.624;5.886;2023-08-12T12:29:04;1.42;;;0.70;;
62709;SDS011;48770;51.624;5.886;2023-08-12T12:31:33;3.00;;;0.95;;
62709;SDS011;48770;51.624;5.886;2023-08-12T12:34:03;3.47;;;0.90;;
62709;SDS011;48770;51.624;5.886;2023-08-12T12:36:32;2.10;;;0.70;;
62709;SDS011;48770;51.624;5.886;2023-08-12T12:38:59;2.70;;;1.00;;
62709;SDS011;48770;51.624;5.886;2023-08-12T12:41:24;3.30;;;0.80;;
62709;SDS011;48770;51.624;5.886;2023-08-12T12:43:49;1.98;;;0.90;;
62709;SDS011;48770;51.624;5.886;2023-08-12T12:46:15;2.22;;;1.05;;
62709;SDS011;48770;51.624;5.886;2023-08-12T12:48:41;3.63;;;1.05;;
62709;SDS011;48770;51.624;5.886;2023-08-12T12:51:07;2.00;;;1.08;;
62709;SDS011;48770;51.624;5.886;2023-08-12T12:53:32;2.03;;;0.93;;
62709;SDS011;48770;51.624;5.886;2023-08-12T12:55:59;4.20;;;1.08;;
62709;SDS011;48770;51.624;5.886;2023-08-12T12:58:28;2.08;;;0.77;;
62709;SDS011;48770;51.624;5.886;2023-08-12T13:00:58;1.88;;;1.05;;
62709;SDS011;48770;51.624;5.886;2023-08-12T13:03:24;1.38;;;0.75;;
62709;SDS011;48770;51.624;5.886;2023-08-12T13:05:50;3.00;;;0.80;;
62709;SDS011;48770;51.624;5.886;2023-08-12T13:08:15;3.00;;;1.13;;
62709;SDS011;48770;51.624;5.886;2023-08-12T13:10:40;4.53;;;1.13;;
62709;SDS011;48770;51.624;5.886;2023-08-12T13:13:06;3.03;;;1.08;;
62709;SDS011;48770;51.624;5.886;2023-08-12T13:15:31;2.60;;;0.95;;
62709;SDS011;48770;51.624;5.886;2023-08-12T13:17:56;3.57;;;1.07;;
62709;SDS011;48770;51.624;5.886;2023-08-12T13:20:22;2.15;;;1.05;;
62709;SDS011;48770;51.624;5.886;2023-08-12T13:22:47;3.28;;;1.20;;
62709;SDS011;48770;51.624;5.886;2023-08-12T13:25:13;3.20;;;1.10;;
62709;SDS011;48770;51.624;5.886;2023-08-12T13:27:38;3.60;;;1.27;;
62709;SDS011;48770;51.624;5.886;2023-08-12T13:30:04;4.18;;;1.27;;
62709;SDS011;48770;51.624;5.886;2023-08-12T13:32:30;3.03;;;1.10;;
62709;SDS011;48770;51.624;5.886;2023-08-12T13:34:55;2.95;;;0.90;;
62709;SDS011;48770;51.624;5.886;2023-08-12T13:37:20;3.87;;;1.20;;
62709;SDS011;48770;51.624;5.886;2023-08-12T13:39:46;3.43;;;1.10;;
62709;SDS011;48770;51.624;5.886;2023-08-12T13:42:11;2.27;;;1.27;;
62709;SDS011;48770;51.624;5.886;2023-08-12T13:44:36;4.35;;;1.25;;
62709;SDS011;48770;51.624;5.886;2023-08-12T13:47:01;3.23;;;0.97;;
62709;SDS011;48770;51.624;5.886;2023-08-12T13:49:27;3.33;;;1.07;;
62709;SDS011;48770;51.624;5.886;2023-08-12T13:51:52;3.25;;;1.02;;
62709;SDS011;48770;51.624;5.886;2023-08-12T13:54:17;2.80;;;0.93;;
62709;SDS011;48770;51.624;5.886;2023-08-12T13:56:43;4.10;;;1.30;;
62709;SDS011;48770;51.624;5.886;2023-08-12T13:59:08;2.90;;;0.87;;
62709;SDS011;48770;51.624;5.886;2023-08-12T14:01:34;2.35;;;1.15;;
62709;SDS011;48770;51.624;5.886;2023-08-12T14:03:59;3.58;;;1.00;;
62709;SDS011;48770;51.624;5.886;2023-08-12T14:06:24;3.87;;;1.23;;
62709;SDS011;48770;51.624;5.886;2023-08-12T14:08:49;3.35;;;1.27;;
62709;SDS011;48770;51.624;5.886;2023-08-12T14:11:15;3.05;;;0.80;;
62709;SDS011;48770;51.624;5.886;2023-08-12T14:13:40;5.43;;;0.88;;
62709;SDS011;48770;51.624;5.886;2023-08-12T14:16:06;3.22;;;1.10;;
62709;SDS011;48770;51.624;5.886;2023-08-12T14:18:31;2.50;;;1.00;;
62709;SDS011;48770;51.624;5.886;2023-08-12T14:20:56;5.20;;;1.63;;
62709;SDS011;48770;51.624;5.886;2023-08-12T14:23:22;3.03;;;1.00;;
62709;SDS011;48770;51.624;5.886;2023-08-12T14:25:48;1.60;;;0.98;;
62709;SDS011;48770;51.624;5.886;2023-08-12T14:28:13;3.30;;;0.90;;
62709;SDS011;48770;51.624;5.886;2023-08-12T14:30:38;2.77;;;0.80;;
62709;SDS011;48770;51.624;5.886;2023-08-12T14:33:04;2.43;;;1.13;;
62709;SDS011;48770;51.624;5.886;2023-08-12T14:35:29;3.58;;;1.10;;
62709;SDS011;48770;51.624;5.886;2023-08-12T14:37:54;2.50;;;1.10;;
62709;SDS011;48770;51.624;5.886;2023-08-12T14:40:20;3.00;;;1.10;;
62709;SDS011;48770;51.624;5.886;2023-08-12T14:42:45;2.53;;;1.20;;
62709;SDS011;48770;51.624;5.886;2023-08-12T14:45:11;2.97;;;1.10;;
62709;SDS011;48770;51.624;5.886;2023-08-12T14:47:36;2.75;;;1.10;;
62709;SDS011;48770;51.624;5.886;2023-08-12T14:50:01;3.63;;;1.17;;